John H Macmillan Jr — WDB9907 — position and weather

sailwx.info

Track history (hours):
 
Tides and Currents Weather Stations Pressure Air Temp Water Temp Dewpoint Dewpoint Depression Visibility Wind Speed Wind Dir Waves Ship Positions

John H Macmillan Jr

Owner: American River Transportation Company, St Louis, MO. More information available from US FCC via Universal Licensing System and Coast Guard Vessel Documentation Center.

Last reported at 2015-Jun-24 14:15 UTC. Time now 2015-Jun-30 19:41 UTC.
Position N 30°47' W 091°33'.

; draft 9 m.

Type: Towing. MMSI: 366984920.

Date/timePositionNaut miles runAvg speedWind from/ knotsBaromVisibWave heightAir tempDewpointWater temp
2015-Jun-24 14:15N 30°47' W 091°33'3 3.1
2015-Jun-24 13:24N 30°44' W 091°34'12 4.1
2015-Jun-24 10:33N 30°43' W 091°21'5 5.1
2015-Jun-24 09:31N 30°38' W 091°18'4 4.1
2015-Jun-24 08:33N 30°34' W 091°18'3 2.6
2015-Jun-24 07:33N 30°34' W 091°15'4 3.8
2015-Jun-24 06:33N 30°30' W 091°17'4 4.2
2015-Jun-24 05:33N 30°31' W 091°12'4 4.4
2015-Jun-24 04:33N 30°26' W 091°12'4 4.3
2015-Jun-24 03:33N 30°23' W 091°14'3 3.4
2015-Jun-24 02:33N 30°21' W 091°11'4 2.7
2015-Jun-24 01:08N 30°18' W 091°14'3 4.6
2015-Jun-24 00:33N 30°17' W 091°11'4 0.1
2015-Jun-22 08:31N 30°14' W 091°08'7 6.3
2015-Jun-22 07:27N 30°18' W 091°14'2 2.0
2015-Jun-22 06:15N 30°21' W 091°14'7 9.5
2015-Jun-22 05:33N 30°27' W 091°12'4 4.1
2015-Jun-22 04:33N 30°31' W 091°15'3 3.2
2015-Jun-22 03:33N 30°34' W 091°15'6 6.1
2015-Jun-22 02:33N 30°39' W 091°19'8 7.3
2015-Jun-22 01:29N 30°45' W 091°25'  
Track history (hours):
 
Tides and Currents Weather Stations Pressure Air Temp Water Temp Dewpoint Dewpoint Depression Visibility Wind Speed Wind Dir Waves Ship Positions

John H Macmillan Jr

Owner: American River Transportation Company, St Louis, MO. More information available from US FCC via Universal Licensing System and Coast Guard Vessel Documentation Center.

Last reported at 2015-Jun-24 14:15 UTC. Time now 2015-Jun-30 19:41 UTC.
Position N 30°47' W 091°33'.

; draft 9 m.

Type: Towing. MMSI: 366984920.

Date/timePositionNaut miles runAvg speedWind from/ knotsBaromVisibWave heightAir tempDewpointWater temp
2015-Jun-24 14:15N 30°47' W 091°33'3 3.1
2015-Jun-24 13:24N 30°44' W 091°34'12 4.1
2015-Jun-24 10:33N 30°43' W 091°21'5 5.1
2015-Jun-24 09:31N 30°38' W 091°18'4 4.1
2015-Jun-24 08:33N 30°34' W 091°18'3 2.6
2015-Jun-24 07:33N 30°34' W 091°15'4 3.8
2015-Jun-24 06:33N 30°30' W 091°17'4 4.2
2015-Jun-24 05:33N 30°31' W 091°12'4 4.4
2015-Jun-24 04:33N 30°26' W 091°12'4 4.3
2015-Jun-24 03:33N 30°23' W 091°14'3 3.4
2015-Jun-24 02:33N 30°21' W 091°11'4 2.7
2015-Jun-24 01:08N 30°18' W 091°14'3 4.6
2015-Jun-24 00:33N 30°17' W 091°11'4 0.1
2015-Jun-22 08:31N 30°14' W 091°08'7 6.3
2015-Jun-22 07:27N 30°18' W 091°14'2 2.0
2015-Jun-22 06:15N 30°21' W 091°14'7 9.5
2015-Jun-22 05:33N 30°27' W 091°12'4 4.1
2015-Jun-22 04:33N 30°31' W 091°15'3 3.2
2015-Jun-22 03:33N 30°34' W 091°15'6 6.1
2015-Jun-22 02:33N 30°39' W 091°19'8 7.3
2015-Jun-22 01:29N 30°45' W 091°25'  

Dump ship's entire track history